Terminal Aerodrome Forecast
Issued by NWS

Home | Current Version | Previous Version | Text Only | Print | Product List | Glossary On
Versions: 1 2 3 4 5 6 7 8 9 10 11 12 13 14 15 16 17 18 19 20 21 22 23 24 25 26 27 28
000
FTUS43 KSGF 262321
TAFJLN
TAF
KJLN 262321Z 2700/2724 18017G27KT P6SM VCTS BKN030CB
      TEMPO 2700/2702 VRB15G30KT 3SM TSRA BR
     FM270200 18010G15KT P6SM VCTS BKN040CB
     FM270600 17012KT P6SM -TSRA OVC090CB
     FM271200 15012KT P6SM VCTS OVC030CB=

USA.gov is the U.S. government's official web portal to all federal, state and local government web resources and services.